Time;durP1;ratioP1;P1;durP2;ratioP2;P2;SDS_P1;SDS_P2;PMS_P1;PMS_P2;Temp;Humidity;BMP_temperature;BMP_pressure;BME280_temperature;BME280_humidity;BME280_pressure;Samples;Min_cycle;Max_cycle;Signal;HPM_P1;HPM_P2
2023/10/19 00:02:07;;;;;;;56.37;2.63;;;;;;;;;;5051873;28;20885;-69
2023/10/19 00:04:36;;;;;;;59.13;3.67;;;;;;;;;;5051850;28;20504;-69
2023/10/19 00:07:04;;;;;;;57.37;3.40;;;;;;;;;;5051919;28;20817;-69
2023/10/19 00:09:36;;;;;;;56.30;2.77;;;;;;;;;;5050194;28;20472;-69
2023/10/19 00:12:05;;;;;;;56.50;2.57;;;;;;;;;;5051844;28;20444;-69
2023/10/19 00:14:32;;;;;;;56.47;2.80;;;;;;;;;;5051307;28;20543;-69
2023/10/19 00:17:05;;;;;;;58.73;4.50;;;;;;;;;;5051842;28;20445;-70
2023/10/19 00:19:37;;;;;;;56.90;3.40;;;;;;;;;;5051515;28;20841;-69
2023/10/19 00:22:09;;;;;;;58.60;3.83;;;;;;;;;;5051724;28;20537;-69
2023/10/19 00:24:35;;;;;;;56.90;2.93;;;;;;;;;;5050853;28;20467;-69
2023/10/19 00:27:06;;;;;;;56.57;2.97;;;;;;;;;;5051340;28;20451;-69
2023/10/19 00:29:32;;;;;;;56.60;2.83;;;;;;;;;;5051474;28;20528;-69
2023/10/19 00:32:00;;;;;;;56.60;3.00;;;;;;;;;;5051511;28;20476;-69
2023/10/19 00:34:28;;;;;;;57.40;2.93;;;;;;;;;;5051332;28;20865;-69
2023/10/19 00:36:56;;;;;;;56.07;2.90;;;;;;;;;;5043203;28;20450;-69
2023/10/19 00:39:27;;;;;;;57.40;3.30;;;;;;;;;;5050423;28;20472;-69
2023/10/19 00:41:57;;;;;;;57.20;3.33;;;;;;;;;;5051405;28;20444;-70
2023/10/19 00:44:35;;;;;;;66.53;5.30;;;;;;;;;;5051230;28;20453;-69
2023/10/19 00:47:03;;;;;;;56.37;2.70;;;;;;;;;;5044546;28;20460;-70
2023/10/19 00:49:32;;;;;;;56.40;3.20;;;;;;;;;;5050880;28;20873;-69
2023/10/19 00:52:03;;;;;;;56.97;3.20;;;;;;;;;;5049576;28;20484;-70
2023/10/19 00:54:35;;;;;;;57.30;3.40;;;;;;;;;;5051128;28;20449;-70
2023/10/19 00:57:06;;;;;;;57.07;3.37;;;;;;;;;;5051186;28;21026;-69
2023/10/19 00:59:38;;;;;;;56.67;2.80;;;;;;;;;;5050945;28;20498;-69
2023/10/19 01:02:17;;;;;;;57.50;3.70;;;;;;;;;;5050813;28;20448;-70
2023/10/19 01:04:46;;;;;;;57.20;3.80;;;;;;;;;;5049330;28;20449;-69
2023/10/19 01:07:15;;;;;;;57.37;3.30;;;;;;;;;;5051065;28;20486;-69
2023/10/19 01:09:46;;;;;;;56.40;2.83;;;;;;;;;;5050848;28;20929;-69
2023/10/19 01:12:25;;;;;;;57.27;2.83;;;;;;;;;;5050894;28;20484;-69
2023/10/19 01:15:07;;;;;;;56.80;2.90;;;;;;;;;;5050657;28;20455;-69
2023/10/19 01:17:38;;;;;;;57.67;3.03;;;;;;;;;;5051013;28;20444;-69
2023/10/19 01:20:13;;;;;;;56.47;2.60;;;;;;;;;;5050812;28;21036;-69
2023/10/19 01:22:48;;;;;;;56.27;2.73;;;;;;;;;;5050981;28;20531;-69
2023/10/19 01:25:23;;;;;;;56.83;2.87;;;;;;;;;;5050727;28;20453;-69
2023/10/19 01:27:54;;;;;;;56.47;2.63;;;;;;;;;;5050939;28;20455;-69
2023/10/19 01:30:22;;;;;;;56.27;2.90;;;;;;;;;;5050588;28;20488;-69
2023/10/19 01:32:49;;;;;;;57.10;3.90;;;;;;;;;;5050427;28;20455;-69
2023/10/19 01:35:17;;;;;;;56.30;2.33;;;;;;;;;;5050533;28;20446;-69
2023/10/19 01:37:44;;;;;;;56.07;2.67;;;;;;;;;;5049872;28;20510;-69
2023/10/19 01:40:15;;;;;;;56.70;2.80;;;;;;;;;;5050579;28;20596;-69
2023/10/19 01:42:41;;;;;;;57.30;3.47;;;;;;;;;;5050482;28;20532;-69
2023/10/19 01:45:11;;;;;;;57.20;3.27;;;;;;;;;;5050400;28;20444;-69
2023/10/19 01:47:38;;;;;;;57.00;3.20;;;;;;;;;;5050483;28;20495;-70
2023/10/19 01:50:06;;;;;;;57.07;3.57;;;;;;;;;;5050653;28;20512;-69
2023/10/19 01:52:32;;;;;;;56.50;2.70;;;;;;;;;;5052654;28;20529;-70
2023/10/19 01:55:07;;;;;;;56.20;2.60;;;;;;;;;;5054597;28;20499;-69
2023/10/19 01:57:34;;;;;;;56.67;3.13;;;;;;;;;;5054302;28;20451;-69
2023/10/19 02:00:09;;;;;;;56.27;2.57;;;;;;;;;;5054140;28;20470;-69
2023/10/19 02:02:35;;;;;;;56.47;3.17;;;;;;;;;;5053866;28;20452;-69
2023/10/19 02:05:08;;;;;;;56.60;2.97;;;;;;;;;;5054115;28;20538;-69
2023/10/19 02:07:35;;;;;;;56.40;2.50;;;;;;;;;;5054341;28;20440;-69
2023/10/19 02:10:07;;;;;;;56.80;2.73;;;;;;;;;;5054204;28;20468;-69
2023/10/19 02:12:35;;;;;;;56.33;2.70;;;;;;;;;;5053346;28;20484;-69
2023/10/19 02:15:01;;;;;;;56.37;2.80;;;;;;;;;;5054178;28;20818;-69
2023/10/19 02:17:29;;;;;;;57.17;3.00;;;;;;;;;;5053873;28;20451;-69
2023/10/19 02:19:55;;;;;;;57.27;3.40;;;;;;;;;;5053767;28;20468;-69
2023/10/19 02:22:22;;;;;;;56.73;3.47;;;;;;;;;;5053690;28;20452;-69
2023/10/19 02:24:48;;;;;;;56.57;2.73;;;;;;;;;;5053618;28;20447;-70
2023/10/19 02:27:17;;;;;;;58.50;3.30;;;;;;;;;;5054069;28;20446;-70
2023/10/19 02:29:43;;;;;;;56.90;2.60;;;;;;;;;;5053787;28;20476;-69
2023/10/19 02:32:11;;;;;;;56.37;2.60;;;;;;;;;;5053566;28;20984;-69
2023/10/19 02:34:37;;;;;;;57.90;5.20;;;;;;;;;;5053434;28;20472;-69
2023/10/19 02:37:04;;;;;;;56.70;3.03;;;;;;;;;;5053588;28;20467;-69
2023/10/19 02:39:32;;;;;;;57.57;3.33;;;;;;;;;;5053313;28;20898;-69
2023/10/19 02:42:01;;;;;;;56.40;2.60;;;;;;;;;;5053516;28;20448;-69
2023/10/19 02:44:30;;;;;;;57.03;2.93;;;;;;;;;;5053593;28;20449;-70
2023/10/19 02:46:58;;;;;;;56.47;2.57;;;;;;;;;;5053434;28;20456;-69
2023/10/19 02:49:25;;;;;;;56.37;2.50;;;;;;;;;;5047116;28;20539;-69
2023/10/19 02:51:53;;;;;;;56.97;2.87;;;;;;;;;;5052973;28;20492;-69
2023/10/19 02:54:21;;;;;;;56.47;2.93;;;;;;;;;;5052977;28;20448;-69
2023/10/19 02:56:49;;;;;;;56.47;2.80;;;;;;;;;;5053057;28;20982;-70
2023/10/19 02:59:16;;;;;;;56.57;2.60;;;;;;;;;;5053054;28;20529;-70
2023/10/19 03:01:44;;;;;;;57.20;3.97;;;;;;;;;;5052992;28;20534;-69
2023/10/19 03:04:12;;;;;;;56.47;2.70;;;;;;;;;;5052423;28;20448;-69
2023/10/19 03:06:40;;;;;;;56.40;2.90;;;;;;;;;;5052964;28;20495;-70
2023/10/19 03:09:12;;;;;;;56.47;2.67;;;;;;;;;;5053082;28;20840;-69
2023/10/19 03:11:41;;;;;;;56.30;2.50;;;;;;;;;;5052932;28;20490;-69
2023/10/19 03:14:08;;;;;;;57.40;2.90;;;;;;;;;;5049369;28;20503;-69
2023/10/19 03:16:35;;;;;;;56.70;2.70;;;;;;;;;;5051390;28;20457;-69
2023/10/19 03:19:04;;;;;;;56.70;3.30;;;;;;;;;;5052589;28;20468;-69
2023/10/19 03:21:34;;;;;;;56.30;2.50;;;;;;;;;;5052934;28;20453;-70
2023/10/19 03:24:05;;;;;;;56.10;2.43;;;;;;;;;;5052707;28;20448;-69
2023/10/19 03:26:36;;;;;;;56.37;2.70;;;;;;;;;;5048585;28;20819;-70
2023/10/19 03:29:07;;;;;;;56.20;2.40;;;;;;;;;;5054532;28;20446;-69
2023/10/19 03:31:43;;;;;;;56.17;2.53;;;;;;;;;;5072989;28;20487;-69
2023/10/19 03:34:12;;;;;;;56.60;3.00;;;;;;;;;;5073564;28;20445;-69
2023/10/19 03:36:40;;;;;;;57.20;3.27;;;;;;;;;;5073979;28;20462;-69
2023/10/19 03:39:12;;;;;;;57.00;2.70;;;;;;;;;;5073950;28;20525;-69
2023/10/19 03:41:42;;;;;;;56.37;2.87;;;;;;;;;;5071515;28;20457;-69
2023/10/19 03:44:13;;;;;;;56.53;2.73;;;;;;;;;;5066858;28;20506;-69
2023/10/19 03:46:52;;;;;;;56.43;2.60;;;;;;;;;;5064366;28;20475;-69
2023/10/19 03:49:21;;;;;;;56.13;2.50;;;;;;;;;;5072881;28;20456;-69
2023/10/19 03:51:59;;;;;;;56.50;2.77;;;;;;;;;;5073193;28;20496;-69
2023/10/19 03:54:27;;;;;;;56.10;2.60;;;;;;;;;;5073432;28;20510;-69
2023/10/19 03:56:55;;;;;;;56.80;2.93;;;;;;;;;;5066875;28;20503;-70
2023/10/19 03:59:22;;;;;;;57.17;3.27;;;;;;;;;;5052591;28;20473;-70
2023/10/19 04:01:49;;;;;;;56.30;2.40;;;;;;;;;;5052419;28;20953;-70
2023/10/19 04:04:17;;;;;;;56.87;3.57;;;;;;;;;;5052557;28;20458;-70
2023/10/19 04:06:48;;;;;;;56.53;2.60;;;;;;;;;;5052187;28;20539;-69
2023/10/19 04:09:18;;;;;;;56.13;2.30;;;;;;;;;;5052795;28;20468;-69
2023/10/19 04:11:49;;;;;;;57.13;2.73;;;;;;;;;;5051741;28;20617;-70
2023/10/19 04:14:16;;;;;;;56.20;2.40;;;;;;;;;;5051107;28;20825;-70
2023/10/19 04:16:44;;;;;;;56.40;2.63;;;;;;;;;;5051657;28;20444;-69
2023/10/19 04:19:11;;;;;;;56.60;2.67;;;;;;;;;;5051624;28;20469;-70
2023/10/19 04:21:39;;;;;;;56.30;2.30;;;;;;;;;;5051758;28;20445;-69
2023/10/19 04:24:09;;;;;;;56.50;2.63;;;;;;;;;;5043324;28;20456;-70
2023/10/19 04:26:37;;;;;;;55.90;2.50;;;;;;;;;;5051885;28;20514;-69
2023/10/19 04:29:09;;;;;;;56.37;2.50;;;;;;;;;;5051513;28;20982;-69
2023/10/19 04:31:37;;;;;;;56.20;2.47;;;;;;;;;;5051806;28;20478;-70
2023/10/19 04:34:07;;;;;;;56.77;2.90;;;;;;;;;;5051154;28;20449;-69
2023/10/19 04:36:35;;;;;;;56.80;4.00;;;;;;;;;;5052113;28;20592;-69
2023/10/19 04:39:02;;;;;;;56.07;2.50;;;;;;;;;;5051526;28;20912;-69
2023/10/19 04:41:31;;;;;;;56.20;2.37;;;;;;;;;;5051455;28;20951;-69
2023/10/19 04:43:58;;;;;;;56.67;2.80;;;;;;;;;;5051532;28;20817;-69
2023/10/19 04:46:25;;;;;;;56.10;2.70;;;;;;;;;;5051330;28;20505;-69
2023/10/19 04:48:52;;;;;;;55.83;2.70;;;;;;;;;;5051619;28;20810;-69
2023/10/19 04:51:19;;;;;;;55.83;2.47;;;;;;;;;;5051415;28;20522;-69
2023/10/19 04:53:46;;;;;;;56.30;2.50;;;;;;;;;;5051135;28;20462;-69
2023/10/19 04:56:14;;;;;;;56.97;3.07;;;;;;;;;;5052016;28;20444;-69
2023/10/19 04:58:42;;;;;;;56.40;2.87;;;;;;;;;;5051545;28;20495;-69
2023/10/19 05:01:11;;;;;;;56.20;2.70;;;;;;;;;;5051146;28;20458;-69
2023/10/19 05:03:39;;;;;;;56.50;2.50;;;;;;;;;;5052242;28;20454;-69
2023/10/19 05:06:06;;;;;;;56.07;2.40;;;;;;;;;;5051604;28;20952;-69
2023/10/19 05:08:33;;;;;;;56.50;2.60;;;;;;;;;;5051766;28;20450;-69
2023/10/19 05:11:00;;;;;;;56.37;2.80;;;;;;;;;;5051669;28;20444;-69
2023/10/19 05:13:27;;;;;;;56.23;2.80;;;;;;;;;;5051058;28;20455;-70
2023/10/19 05:15:58;;;;;;;57.77;2.80;;;;;;;;;;5050881;28;20453;-69
2023/10/19 05:18:25;;;;;;;56.30;2.60;;;;;;;;;;5051268;28;20454;-69
2023/10/19 05:20:56;;;;;;;55.87;2.10;;;;;;;;;;5050949;28;20456;-69
2023/10/19 05:23:24;;;;;;;56.03;2.70;;;;;;;;;;5051033;28;20947;-69
2023/10/19 05:25:53;;;;;;;56.67;2.77;;;;;;;;;;5051880;28;20496;-69
2023/10/19 05:28:21;;;;;;;57.57;3.33;;;;;;;;;;5055024;28;20682;-69
2023/10/19 05:30:49;;;;;;;56.37;2.63;;;;;;;;;;5055026;28;20469;-69
2023/10/19 05:33:20;;;;;;;57.87;3.37;;;;;;;;;;5054904;28;20491;-69
2023/10/19 05:35:47;;;;;;;56.10;2.30;;;;;;;;;;5054283;28;21023;-69
2023/10/19 05:38:15;;;;;;;56.40;2.70;;;;;;;;;;5054826;28;20452;-69
2023/10/19 05:40:43;;;;;;;56.27;2.40;;;;;;;;;;5054515;28;20444;-69
2023/10/19 05:43:10;;;;;;;56.60;2.97;;;;;;;;;;5053198;28;20457;-69
2023/10/19 05:45:37;;;;;;;56.07;2.50;;;;;;;;;;5053824;28;20802;-70
2023/10/19 05:48:06;;;;;;;56.27;3.20;;;;;;;;;;5054681;28;20440;-69
2023/10/19 05:50:34;;;;;;;55.77;2.50;;;;;;;;;;5052183;28;20477;-69
2023/10/19 05:53:02;;;;;;;55.77;2.40;;;;;;;;;;5054253;28;20485;-70
2023/10/19 05:55:30;;;;;;;55.87;2.50;;;;;;;;;;5054731;28;20460;-69
2023/10/19 05:57:57;;;;;;;56.40;2.70;;;;;;;;;;5054594;28;20453;-69
2023/10/19 06:00:25;;;;;;;56.50;3.13;;;;;;;;;;5053853;28;20968;-70
2023/10/19 06:02:53;;;;;;;55.70;2.67;;;;;;;;;;5054143;28;20452;-69
2023/10/19 06:05:21;;;;;;;56.20;2.73;;;;;;;;;;5054850;28;20466;-69
2023/10/19 06:07:50;;;;;;;56.60;2.80;;;;;;;;;;5054221;28;20467;-69
2023/10/19 06:10:18;;;;;;;56.33;2.77;;;;;;;;;;5054059;28;21015;-69
2023/10/19 06:12:45;;;;;;;56.50;2.43;;;;;;;;;;5054151;28;20480;-69
2023/10/19 06:15:12;;;;;;;56.00;2.50;;;;;;;;;;5045538;28;20457;-69
2023/10/19 06:17:40;;;;;;;55.83;2.70;;;;;;;;;;5053968;28;20932;-69
2023/10/19 06:20:08;;;;;;;56.37;3.27;;;;;;;;;;5053700;28;20906;-69
2023/10/19 06:22:35;;;;;;;56.30;2.53;;;;;;;;;;5053948;28;20436;-69
2023/10/19 06:25:05;;;;;;;56.20;2.30;;;;;;;;;;5054007;28;20446;-69
2023/10/19 06:27:33;;;;;;;56.17;2.40;;;;;;;;;;5053923;28;20446;-70
2023/10/19 06:30:00;;;;;;;56.30;2.70;;;;;;;;;;5053991;28;20469;-69
2023/10/19 06:32:27;;;;;;;56.20;2.57;;;;;;;;;;5053636;28;20485;-69
2023/10/19 06:34:54;;;;;;;57.10;3.20;;;;;;;;;;5053627;28;20506;-69
2023/10/19 06:37:21;;;;;;;56.40;2.80;;;;;;;;;;5052902;28;20503;-70
2023/10/19 06:39:50;;;;;;;57.43;3.87;;;;;;;;;;5053660;28;20474;-69
2023/10/19 06:42:18;;;;;;;56.30;2.67;;;;;;;;;;5053939;28;20471;-70
2023/10/19 06:44:46;;;;;;;56.77;2.97;;;;;;;;;;5053478;28;20466;-69
2023/10/19 06:47:13;;;;;;;56.80;2.80;;;;;;;;;;5053590;28;20813;-70
2023/10/19 06:49:41;;;;;;;56.70;2.90;;;;;;;;;;5053311;28;20522;-69
2023/10/19 06:52:11;;;;;;;56.30;2.60;;;;;;;;;;5053524;28;21299;-69
2023/10/19 06:54:38;;;;;;;56.23;2.60;;;;;;;;;;5053455;28;20462;-69
2023/10/19 06:57:07;;;;;;;55.87;2.90;;;;;;;;;;5053408;28;20448;-69
2023/10/19 06:59:37;;;;;;;55.97;2.60;;;;;;;;;;5053086;28;20500;-69
2023/10/19 07:02:04;;;;;;;56.13;2.40;;;;;;;;;;5053048;28;20459;-69
2023/10/19 07:04:31;;;;;;;58.23;4.13;;;;;;;;;;5053309;28;20809;-69
2023/10/19 07:06:58;;;;;;;58.40;2.90;;;;;;;;;;5053332;28;20479;-69
2023/10/19 07:09:25;;;;;;;57.37;2.90;;;;;;;;;;5050789;28;20471;-69
2023/10/19 07:11:56;;;;;;;56.27;3.00;;;;;;;;;;5052177;28;20446;-69
2023/10/19 07:14:24;;;;;;;57.20;3.07;;;;;;;;;;5050797;28;20949;-68
2023/10/19 07:16:52;;;;;;;56.50;2.60;;;;;;;;;;5050766;28;20775;-69
2023/10/19 07:19:20;;;;;;;56.77;3.23;;;;;;;;;;5052320;28;20468;-69
2023/10/19 07:21:53;;;;;;;56.30;2.50;;;;;;;;;;5052860;28;20518;-69
2023/10/19 07:24:23;;;;;;;56.80;2.70;;;;;;;;;;5045301;28;20460;-69
2023/10/19 07:27:04;;;;;;;56.73;3.00;;;;;;;;;;5052536;28;20452;-69
2023/10/19 07:29:31;;;;;;;56.60;2.80;;;;;;;;;;5046607;28;20471;-69
2023/10/19 07:32:00;;;;;;;56.23;2.67;;;;;;;;;;5052060;28;20448;-69
2023/10/19 07:34:28;;;;;;;56.80;2.87;;;;;;;;;;5052372;28;20946;-69
2023/10/19 07:36:58;;;;;;;56.60;2.80;;;;;;;;;;5052576;28;20539;-69
2023/10/19 07:39:27;;;;;;;56.47;3.20;;;;;;;;;;5052162;28;21023;-69
2023/10/19 07:41:55;;;;;;;58.30;3.67;;;;;;;;;;5052559;28;20806;-69
2023/10/19 07:44:22;;;;;;;56.37;3.10;;;;;;;;;;5052259;28;20952;-69
2023/10/19 07:46:49;;;;;;;56.50;2.90;;;;;;;;;;5052703;28;20448;-69
2023/10/19 07:49:18;;;;;;;57.00;3.00;;;;;;;;;;5052103;28;20466;-69
2023/10/19 07:51:49;;;;;;;56.90;2.70;;;;;;;;;;5052281;28;20454;-69
2023/10/19 07:54:16;;;;;;;56.30;2.70;;;;;;;;;;5052488;28;20966;-69
2023/10/19 07:56:43;;;;;;;56.27;2.90;;;;;;;;;;5052404;28;20442;-69
2023/10/19 07:59:12;;;;;;;56.63;2.77;;;;;;;;;;5052157;28;20473;-69
2023/10/19 08:01:39;;;;;;;56.27;2.60;;;;;;;;;;5052108;28;20936;-69
2023/10/19 08:04:06;;;;;;;56.07;2.60;;;;;;;;;;5051920;28;20437;-69
2023/10/19 08:06:35;;;;;;;56.20;2.70;;;;;;;;;;5051919;28;20472;-69
2023/10/19 08:09:04;;;;;;;56.20;2.70;;;;;;;;;;5051930;28;20476;-69
2023/10/19 08:11:32;;;;;;;57.57;3.37;;;;;;;;;;5051908;28;20481;-69
2023/10/19 08:14:00;;;;;;;56.10;2.50;;;;;;;;;;5051480;28;20490;-69
2023/10/19 08:16:28;;;;;;;56.97;3.20;;;;;;;;;;5051885;28;20496;-69
2023/10/19 08:18:55;;;;;;;57.07;3.10;;;;;;;;;;5051721;28;20479;-69
2023/10/19 08:21:23;;;;;;;57.30;4.57;;;;;;;;;;5051812;28;20452;-69
2023/10/19 08:23:51;;;;;;;57.37;3.47;;;;;;;;;;5051903;28;20451;-69
2023/10/19 08:26:18;;;;;;;56.60;3.10;;;;;;;;;;5043566;28;20446;-69
2023/10/19 08:28:45;;;;;;;56.70;2.90;;;;;;;;;;5051512;28;20467;-69
2023/10/19 08:31:12;;;;;;;57.17;3.73;;;;;;;;;;5051695;28;20451;-69
2023/10/19 08:33:41;;;;;;;56.93;2.80;;;;;;;;;;5051393;28;20596;-69
2023/10/19 08:36:08;;;;;;;57.00;3.20;;;;;;;;;;5051459;28;20458;-70
2023/10/19 08:38:35;;;;;;;56.70;2.73;;;;;;;;;;5051729;28;20452;-70
2023/10/19 08:41:04;;;;;;;56.23;2.53;;;;;;;;;;5051238;28;20454;-70
2023/10/19 08:43:33;;;;;;;56.80;2.80;;;;;;;;;;5051383;28;20936;-70
2023/10/19 08:46:00;;;;;;;56.47;2.80;;;;;;;;;;5051007;28;20732;-70
2023/10/19 08:48:29;;;;;;;56.60;3.17;;;;;;;;;;5051185;28;20448;-70
2023/10/19 08:50:56;;;;;;;57.30;3.60;;;;;;;;;;5050971;28;20878;-70
2023/10/19 08:53:23;;;;;;;56.17;2.47;;;;;;;;;;5051446;28;20501;-70
2023/10/19 08:55:54;;;;;;;56.50;2.37;;;;;;;;;;5051223;28;20831;-71
2023/10/19 08:58:23;;;;;;;56.50;2.80;;;;;;;;;;5048416;28;20547;-71
2023/10/19 09:00:53;;;;;;;56.57;2.67;;;;;;;;;;5050385;28;20475;-70
2023/10/19 09:03:21;;;;;;;56.37;3.23;;;;;;;;;;5043036;28;20445;-71
2023/10/19 09:05:49;;;;;;;56.80;3.27;;;;;;;;;;5051121;28;20456;-71
2023/10/19 09:08:22;;;;;;;56.37;2.50;;;;;;;;;;5050852;28;20448;-70
2023/10/19 09:10:51;;;;;;;56.27;2.50;;;;;;;;;;5050828;28;20552;-71
2023/10/19 09:13:19;;;;;;;56.93;3.23;;;;;;;;;;5050660;28;20491;-71
2023/10/19 09:15:48;;;;;;;56.40;2.47;;;;;;;;;;5050942;28;20448;-70
2023/10/19 09:18:16;;;;;;;56.20;2.73;;;;;;;;;;5050875;28;20458;-70
2023/10/19 09:20:52;;;;;;;56.37;2.60;;;;;;;;;;5050908;28;20446;-71
2023/10/19 09:23:19;;;;;;;55.97;2.37;;;;;;;;;;5050724;28;20837;-71
2023/10/19 09:25:46;;;;;;;56.77;3.30;;;;;;;;;;5050729;28;20971;-70
2023/10/19 09:28:13;;;;;;;56.23;2.27;;;;;;;;;;5045274;28;20964;-70
2023/10/19 09:30:41;;;;;;;55.93;2.50;;;;;;;;;;5050620;28;20833;-70
2023/10/19 09:33:09;;;;;;;56.13;2.40;;;;;;;;;;5050651;28;20487;-70
2023/10/19 09:35:37;;;;;;;56.30;2.40;;;;;;;;;;5050728;28;20456;-70
2023/10/19 09:38:06;;;;;;;56.53;2.57;;;;;;;;;;5050587;28;20548;-70
2023/10/19 09:40:34;;;;;;;56.87;2.83;;;;;;;;;;5050685;28;20471;-70
2023/10/19 09:43:04;;;;;;;55.90;2.30;;;;;;;;;;5050767;28;20448;-70
2023/10/19 09:45:31;;;;;;;56.33;2.47;;;;;;;;;;5050579;28;20455;-70
2023/10/19 09:48:01;;;;;;;56.30;2.80;;;;;;;;;;5050423;28;20450;-70
2023/10/19 09:50:30;;;;;;;56.40;2.30;;;;;;;;;;5050429;28;20468;-70
2023/10/19 09:52:57;;;;;;;56.50;2.53;;;;;;;;;;5050098;28;20857;-70
2023/10/19 09:55:29;;;;;;;56.03;2.03;;;;;;;;;;5050479;28;20941;-70
2023/10/19 09:57:58;;;;;;;55.63;2.27;;;;;;;;;;5050642;28;20550;-71
2023/10/19 10:00:25;;;;;;;56.60;2.70;;;;;;;;;;5050201;28;20793;-70
2023/10/19 10:02:55;;;;;;;56.50;2.33;;;;;;;;;;5050226;28;20446;-70
2023/10/19 10:05:41;;;;;;;56.17;2.17;;;;;;;;;;5050315;28;20442;-68
2023/10/19 10:08:27;;;;;;;56.90;4.23;;;;;;;;;;5050708;28;20446;-69
2023/10/19 10:10:55;;;;;;;56.40;2.30;;;;;;;;;;5050212;28;20446;-69
2023/10/19 10:13:38;;;;;;;55.90;2.70;;;;;;;;;;5051965;28;20493;-70
2023/10/19 10:16:05;;;;;;;55.77;2.03;;;;;;;;;;5054257;28;20449;-70
2023/10/19 10:18:33;;;;;;;56.57;2.57;;;;;;;;;;5054220;28;20458;-71
2023/10/19 10:21:09;;;;;;;56.53;2.83;;;;;;;;;;5054198;28;20458;-70
2023/10/19 10:23:43;;;;;;;56.27;2.20;;;;;;;;;;5053848;28;20447;-71
2023/10/19 10:26:13;;;;;;;56.27;2.27;;;;;;;;;;5053808;28;20450;-70
2023/10/19 10:28:41;;;;;;;57.17;2.57;;;;;;;;;;5053930;28;20991;-71
2023/10/19 10:31:08;;;;;;;56.17;2.13;;;;;;;;;;5053835;28;20953;-71
2023/10/19 10:33:44;;;;;;;56.57;2.20;;;;;;;;;;5053678;28;21021;-70
2023/10/19 10:36:12;;;;;;;56.40;2.07;;;;;;;;;;5053631;28;20448;-70
2023/10/19 10:38:40;;;;;;;56.60;2.80;;;;;;;;;;5053379;28;20475;-70
2023/10/19 10:41:09;;;;;;;56.80;2.57;;;;;;;;;;5053556;28;20803;-71
2023/10/19 10:43:49;;;;;;;56.80;2.70;;;;;;;;;;5053542;28;20449;-70
2023/10/19 10:46:16;;;;;;;56.30;2.10;;;;;;;;;;5053510;28;20455;-70
2023/10/19 10:48:44;;;;;;;56.30;2.07;;;;;;;;;;5053903;28;20508;-70
2023/10/19 10:51:16;;;;;;;56.90;2.30;;;;;;;;;;5053103;28;20455;-71
2023/10/19 10:53:43;;;;;;;56.90;2.73;;;;;;;;;;5053560;28;20502;-71
2023/10/19 10:56:10;;;;;;;56.00;2.20;;;;;;;;;;5053625;28;20452;-70
2023/10/19 10:58:39;;;;;;;56.40;2.20;;;;;;;;;;5053488;28;20471;-71
2023/10/19 11:01:07;;;;;;;56.70;2.63;;;;;;;;;;5053016;28;20466;-71
2023/10/19 11:03:34;;;;;;;56.60;2.20;;;;;;;;;;5052966;28;20447;-71
2023/10/19 11:06:05;;;;;;;56.70;2.50;;;;;;;;;;5053301;28;20813;-71
2023/10/19 11:08:32;;;;;;;57.07;2.20;;;;;;;;;;5053126;28;20451;-70
2023/10/19 11:11:04;;;;;;;56.40;2.20;;;;;;;;;;5053049;28;20456;-70
2023/10/19 11:13:34;;;;;;;57.30;2.80;;;;;;;;;;5051684;28;20481;-71
2023/10/19 11:16:05;;;;;;;56.27;2.20;;;;;;;;;;5052886;28;20929;-71
2023/10/19 11:18:35;;;;;;;56.27;2.23;;;;;;;;;;5052726;28;20455;-71
2023/10/19 11:21:04;;;;;;;56.27;2.47;;;;;;;;;;5052088;28;20540;-71
2023/10/19 11:23:38;;;;;;;56.50;2.43;;;;;;;;;;5050798;28;20551;-71
2023/10/19 11:26:06;;;;;;;56.50;2.60;;;;;;;;;;5047966;28;20451;-71
2023/10/19 11:28:33;;;;;;;56.53;2.60;;;;;;;;;;5052466;28;20445;-70
2023/10/19 11:31:15;;;;;;;56.70;3.00;;;;;;;;;;5051633;28;20451;-71
2023/10/19 11:33:44;;;;;;;56.30;2.17;;;;;;;;;;5050257;28;20507;-71
2023/10/19 11:36:12;;;;;;;56.23;2.20;;;;;;;;;;5051799;28;20459;-71
2023/10/19 11:38:40;;;;;;;56.77;2.50;;;;;;;;;;5051289;28;20471;-71
2023/10/19 11:41:07;;;;;;;57.23;2.60;;;;;;;;;;5051895;28;20455;-71
2023/10/19 11:43:35;;;;;;;56.77;2.30;;;;;;;;;;5053557;28;20455;-71
2023/10/19 11:46:04;;;;;;;56.30;2.30;;;;;;;;;;5051847;28;20458;-71
2023/10/19 11:48:31;;;;;;;56.37;2.33;;;;;;;;;;5044180;28;20448;-71
2023/10/19 11:51:00;;;;;;;56.67;2.63;;;;;;;;;;5052107;28;20448;-71
2023/10/19 11:53:32;;;;;;;56.80;2.87;;;;;;;;;;5051945;28;20488;-70
2023/10/19 11:56:00;;;;;;;56.40;2.60;;;;;;;;;;5052561;28;20455;-71
2023/10/19 11:58:27;;;;;;;56.40;2.43;;;;;;;;;;5052195;28;21010;-71
2023/10/19 12:00:54;;;;;;;56.37;2.50;;;;;;;;;;5052248;28;20466;-71
2023/10/19 12:03:22;;;;;;;56.17;2.40;;;;;;;;;;5052296;28;20454;-70
2023/10/19 12:05:49;;;;;;;56.47;2.50;;;;;;;;;;5052281;28;20460;-71
2023/10/19 12:08:17;;;;;;;56.80;2.70;;;;;;;;;;5051829;28;20445;-70
2023/10/19 12:10:44;;;;;;;56.40;2.63;;;;;;;;;;5051967;28;20483;-70
2023/10/19 12:13:11;;;;;;;56.27;2.80;;;;;;;;;;5051950;28;20952;-71
2023/10/19 12:15:38;;;;;;;56.33;2.37;;;;;;;;;;5052144;28;20448;-71
2023/10/19 12:18:08;;;;;;;56.57;2.70;;;;;;;;;;5051920;28;20452;-70
2023/10/19 12:20:35;;;;;;;56.63;2.40;;;;;;;;;;5051711;28;20480;-70
2023/10/19 12:23:05;;;;;;;56.27;2.30;;;;;;;;;;5052210;28;20455;-70
2023/10/19 12:25:34;;;;;;;56.27;2.60;;;;;;;;;;5051858;28;20501;-70
2023/10/19 12:28:03;;;;;;;56.80;3.10;;;;;;;;;;5051881;28;20955;-71
2023/10/19 12:30:36;;;;;;;57.47;3.17;;;;;;;;;;5051696;28;20464;-71
2023/10/19 12:33:07;;;;;;;56.27;2.40;;;;;;;;;;5051650;28;20576;-71
2023/10/19 12:35:44;;;;;;;56.80;3.37;;;;;;;;;;5051248;28;20498;-70
2023/10/19 12:38:15;;;;;;;56.60;3.00;;;;;;;;;;5051647;28;20451;-70
2023/10/19 12:40:46;;;;;;;56.33;2.60;;;;;;;;;;5052009;28;20870;-70
2023/10/19 12:43:13;;;;;;;57.90;3.07;;;;;;;;;;5051019;28;20975;-70
2023/10/19 12:45:41;;;;;;;56.27;2.60;;;;;;;;;;5051218;28;20448;-70
2023/10/19 12:48:10;;;;;;;56.17;2.60;;;;;;;;;;5051364;28;20452;-70
2023/10/19 12:50:38;;;;;;;56.47;2.50;;;;;;;;;;5051148;28;20506;-70
2023/10/19 12:53:06;;;;;;;56.50;2.70;;;;;;;;;;5051201;28;20467;-70
2023/10/19 12:55:34;;;;;;;56.60;2.77;;;;;;;;;;5051069;28;20951;-70
2023/10/19 12:58:08;;;;;;;57.03;3.30;;;;;;;;;;5051020;28;20459;-70
2023/10/19 13:00:40;;;;;;;56.57;2.50;;;;;;;;;;5050909;28;20561;-70
2023/10/19 13:03:08;;;;;;;56.50;2.60;;;;;;;;;;5051005;28;20883;-70
2023/10/19 13:05:36;;;;;;;56.30;2.70;;;;;;;;;;5051363;28;20806;-70
2023/10/19 13:08:05;;;;;;;56.70;2.90;;;;;;;;;;5051094;28;20794;-70
2023/10/19 13:10:33;;;;;;;56.90;2.80;;;;;;;;;;5050705;28;20469;-70
2023/10/19 13:13:03;;;;;;;56.60;2.67;;;;;;;;;;5050840;28;20463;-71
2023/10/19 13:15:30;;;;;;;57.77;3.50;;;;;;;;;;5050754;28;20585;-71
2023/10/19 13:17:59;;;;;;;56.47;2.80;;;;;;;;;;5050950;28;20550;-71
2023/10/19 13:20:26;;;;;;;56.70;3.20;;;;;;;;;;5050660;28;20470;-70
2023/10/19 13:22:55;;;;;;;56.90;3.43;;;;;;;;;;5050913;28;20456;-70
2023/10/19 13:25:38;;;;;;;57.67;3.20;;;;;;;;;;5050586;28;20456;-70
2023/10/19 13:28:09;;;;;;;56.83;3.07;;;;;;;;;;5051102;28;20455;-70
2023/10/19 13:30:37;;;;;;;56.30;2.60;;;;;;;;;;5042993;28;20471;-70
2023/10/19 13:33:06;;;;;;;56.60;2.70;;;;;;;;;;5050772;28;20475;-70
2023/10/19 13:35:33;;;;;;;56.37;2.90;;;;;;;;;;5050578;28;20907;-70
2023/10/19 13:38:00;;;;;;;59.60;4.50;;;;;;;;;;5050883;28;20448;-70
2023/10/19 13:40:29;;;;;;;56.67;2.77;;;;;;;;;;5046712;28;20469;-70
2023/10/19 13:42:57;;;;;;;56.40;2.67;;;;;;;;;;5043071;28;20512;-70
2023/10/19 13:45:25;;;;;;;56.30;3.00;;;;;;;;;;5046213;28;20498;-70
2023/10/19 13:47:54;;;;;;;57.47;2.80;;;;;;;;;;5053703;28;20797;-70
2023/10/19 13:50:23;;;;;;;56.97;2.70;;;;;;;;;;5054338;28;20475;-70
2023/10/19 13:52:50;;;;;;;56.27;2.57;;;;;;;;;;5054352;28;20452;-70
2023/10/19 13:55:18;;;;;;;56.63;2.60;;;;;;;;;;5054660;28;20510;-70
2023/10/19 13:57:46;;;;;;;56.60;2.60;;;;;;;;;;5054594;28;20812;-70
2023/10/19 14:00:19;;;;;;;56.53;2.63;;;;;;;;;;5054243;28;20468;-70
2023/10/19 14:02:47;;;;;;;57.50;2.90;;;;;;;;;;5054475;28;20812;-70
2023/10/19 14:05:14;;;;;;;56.37;2.53;;;;;;;;;;5054436;28;20446;-70
2023/10/19 14:07:43;;;;;;;56.10;2.50;;;;;;;;;;5054254;28;20451;-70
2023/10/19 14:10:12;;;;;;;56.70;3.17;;;;;;;;;;5054035;28;20481;-70
2023/10/19 14:12:41;;;;;;;56.70;2.80;;;;;;;;;;5054129;28;20935;-70
2023/10/19 14:15:09;;;;;;;56.07;2.33;;;;;;;;;;5053978;28;20849;-70
2023/10/19 14:17:36;;;;;;;56.67;2.40;;;;;;;;;;5054317;28;20815;-70
2023/10/19 14:20:06;;;;;;;56.03;2.40;;;;;;;;;;5054062;28;20474;-70
2023/10/19 14:22:36;;;;;;;57.47;3.37;;;;;;;;;;5053949;28;20824;-71
2023/10/19 14:25:03;;;;;;;56.50;2.80;;;;;;;;;;5053983;28;21027;-70
2023/10/19 14:27:31;;;;;;;56.27;2.43;;;;;;;;;;5053816;28;20453;-70
2023/10/19 14:29:58;;;;;;;56.37;2.40;;;;;;;;;;5053534;28;20574;-70
2023/10/19 14:32:26;;;;;;;56.03;2.17;;;;;;;;;;5053413;28;20910;-70
2023/10/19 14:34:54;;;;;;;56.27;2.73;;;;;;;;;;5053820;28;20485;-70
2023/10/19 14:37:22;;;;;;;56.40;2.77;;;;;;;;;;5051481;28;20519;-70
2023/10/19 14:39:49;;;;;;;56.47;2.53;;;;;;;;;;5052888;28;20503;-70
2023/10/19 14:42:16;;;;;;;56.50;2.40;;;;;;;;;;5053097;28;20448;-70